createdAt,value
2018-02-22T00:00:11.348Z,55.43
2018-02-22T00:02:42.418Z,55.41
2018-02-22T00:05:13.410Z,55.37
2018-02-22T00:07:44.408Z,55.09
2018-02-22T00:10:15.396Z,55.00
2018-02-22T00:12:46.384Z,54.79
2018-02-22T00:15:17.343Z,54.71
2018-02-22T00:17:48.325Z,54.26
2018-02-22T00:20:19.302Z,54.16
2018-02-22T00:22:50.264Z,53.85
2018-02-22T00:25:21.289Z,53.65
2018-02-22T00:27:52.271Z,53.78
2018-02-22T00:30:23.266Z,54.17
2018-02-22T00:32:54.228Z,54.10
2018-02-22T00:35:25.181Z,54.23
2018-02-22T00:37:56.174Z,53.94
2018-02-22T00:40:27.195Z,54.01
2018-02-22T00:42:58.191Z,53.89
2018-02-22T00:45:29.185Z,54.50
2018-02-22T00:48:00.203Z,54.56
2018-02-22T00:50:31.244Z,54.66
2018-02-22T00:53:02.268Z,54.93
2018-02-22T00:55:33.239Z,55.23
2018-02-22T00:58:04.257Z,55.55
2018-02-22T01:00:35.236Z,55.52
2018-02-22T01:03:06.267Z,55.49
2018-02-22T01:05:37.221Z,55.83
2018-02-22T01:08:08.272Z,55.92
2018-02-22T01:10:39.255Z,55.89
2018-02-22T01:13:10.237Z,56.02
2018-02-22T01:15:41.231Z,56.27
2018-02-22T01:18:12.229Z,56.04
2018-02-22T01:20:43.191Z,56.07
2018-02-22T01:23:14.192Z,56.17
2018-02-22T01:25:45.204Z,56.48
2018-02-22T01:28:16.195Z,56.65
2018-02-22T01:30:47.235Z,56.76
2018-02-22T01:33:18.201Z,57.23
2018-02-22T01:35:49.219Z,57.21
2018-02-22T01:38:20.650Z,57.01
2018-02-22T01:40:51.686Z,57.06
2018-02-22T01:43:22.712Z,57.38
2018-02-22T01:45:53.734Z,57.45
2018-02-22T01:48:24.745Z,57.85
2018-02-22T01:50:55.788Z,57.98
2018-02-22T01:53:26.760Z,58.15
2018-02-22T01:55:57.834Z,58.22
2018-02-22T01:58:28.831Z,58.36
2018-02-22T02:00:59.798Z,58.59
2018-02-22T02:03:30.797Z,58.85
2018-02-22T02:06:01.770Z,58.65
2018-02-22T02:08:32.772Z,58.46
2018-02-22T02:11:03.751Z,59.00
2018-02-22T02:13:34.731Z,59.35
2018-02-22T02:16:05.716Z,59.50
2018-02-22T02:18:36.758Z,59.58
2018-02-22T02:21:07.805Z,59.49
2018-02-22T02:23:38.831Z,59.65
2018-02-22T02:26:09.841Z,59.45
2018-02-22T02:28:40.827Z,59.43
2018-02-22T02:31:11.861Z,59.41
2018-02-22T02:33:42.880Z,59.60
2018-02-22T02:36:14.459Z,59.57
2018-02-22T02:38:45.412Z,59.64
2018-02-22T02:41:16.403Z,59.72
2018-02-22T02:43:47.358Z,60.10
2018-02-22T02:46:18.368Z,60.04
2018-02-22T02:48:49.362Z,60.14
2018-02-22T02:51:20.348Z,60.15
2018-02-22T02:53:51.345Z,60.13
2018-02-22T02:56:22.357Z,60.13
2018-02-22T02:58:53.351Z,60.37
2018-02-22T03:01:24.337Z,60.04
2018-02-22T03:03:55.337Z,60.32
2018-02-22T03:06:26.377Z,60.02
2018-02-22T03:08:57.389Z,59.95
2018-02-22T03:11:28.416Z,60.29
2018-02-22T03:13:59.419Z,60.30
2018-02-22T03:16:30.421Z,60.08
2018-02-22T03:19:01.384Z,60.12
2018-02-22T03:21:32.381Z,60.14
2018-02-22T03:24:03.340Z,60.55
2018-02-22T03:26:34.325Z,60.81
2018-02-22T03:29:05.375Z,60.49
2018-02-22T03:31:36.345Z,60.19
2018-02-22T03:34:07.389Z,59.84
2018-02-22T03:36:38.386Z,60.12
2018-02-22T03:39:09.363Z,60.27
2018-02-22T03:41:40.390Z,60.41
2018-02-22T03:44:11.343Z,60.53
2018-02-22T03:46:42.349Z,60.47
2018-02-22T03:49:13.328Z,60.32
2018-02-22T03:51:44.346Z,60.28
2018-02-22T03:54:15.339Z,60.67
2018-02-22T03:56:46.368Z,60.90
2018-02-22T03:59:17.380Z,61.25
2018-02-22T04:01:48.427Z,61.19
2018-02-22T04:04:19.418Z,61.26
2018-02-22T04:06:50.426Z,61.29
2018-02-22T04:09:21.440Z,61.26
2018-02-22T04:11:52.388Z,61.22
2018-02-22T04:14:23.395Z,61.17
2018-02-22T04:16:54.441Z,61.05
2018-02-22T04:19:25.439Z,61.34
2018-02-22T04:21:56.447Z,61.47
2018-02-22T04:24:27.380Z,61.44
2018-02-22T04:29:36.100Z,61.81
2018-02-22T04:32:07.114Z,61.78
2018-02-22T04:34:38.128Z,61.75
2018-02-22T04:37:09.131Z,61.77
2018-02-22T04:42:17.848Z,61.75
2018-02-22T04:44:48.874Z,61.88
2018-02-22T04:47:19.845Z,61.99
2018-02-22T04:49:50.829Z,61.98
2018-02-22T04:52:21.829Z,61.91
2018-02-22T04:54:52.814Z,61.63
2018-02-22T04:57:23.846Z,61.57
2018-02-22T04:59:55.761Z,61.77
2018-02-22T05:02:26.774Z,61.94
2018-02-22T05:04:57.744Z,61.92
2018-02-22T05:07:28.767Z,61.69
2018-02-22T05:09:59.753Z,61.87
2018-02-22T05:12:30.749Z,61.84
2018-02-22T05:15:01.767Z,61.95
2018-02-22T05:17:32.755Z,61.78
2018-02-22T05:20:03.788Z,61.85
2018-02-22T05:22:34.768Z,61.81
2018-02-22T05:25:05.792Z,61.90
2018-02-22T05:27:36.754Z,61.63
2018-02-22T05:30:07.756Z,61.79
2018-02-22T05:32:38.777Z,61.84
2018-02-22T05:35:11.469Z,61.57
2018-02-22T05:37:42.438Z,61.71
2018-02-22T05:40:13.454Z,61.54
2018-02-22T05:42:44.493Z,61.29
2018-02-22T05:45:15.568Z,61.36
2018-02-22T05:47:46.564Z,61.20
2018-02-22T05:50:17.555Z,61.20
2018-02-22T05:52:48.563Z,61.32
2018-02-22T05:55:19.584Z,61.31
2018-02-22T05:57:50.652Z,61.36
2018-02-22T06:00:21.670Z,61.24
2018-02-22T06:02:52.701Z,61.21
2018-02-22T06:05:23.754Z,61.22
2018-02-22T06:07:54.721Z,60.99
2018-02-22T06:10:25.744Z,60.79
2018-02-22T06:12:56.759Z,60.35
2018-02-22T06:15:27.789Z,60.12
2018-02-22T06:17:58.783Z,60.05
2018-02-22T06:20:29.806Z,59.68
2018-02-22T06:23:00.789Z,58.95
2018-02-22T06:25:31.799Z,58.46
2018-02-22T06:28:02.794Z,58.51
2018-02-22T06:30:33.856Z,58.57
2018-02-22T06:33:04.879Z,58.33
2018-02-22T06:35:35.883Z,57.97
2018-02-22T06:38:06.957Z,58.01
2018-02-22T06:40:37.940Z,57.62
2018-02-22T06:43:08.946Z,58.73
2018-02-22T06:45:39.939Z,57.27
2018-02-22T06:48:10.968Z,56.80
2018-02-22T06:50:41.965Z,56.46
2018-02-22T06:53:13.013Z,56.24
2018-02-22T06:55:43.963Z,56.13
2018-02-22T07:01:10.996Z,55.75
2018-02-22T07:03:41.960Z,55.47
2018-02-22T07:06:12.987Z,55.17
2018-02-22T07:08:44.022Z,54.48
2018-02-22T07:11:15.026Z,54.17
2018-02-22T07:13:46.038Z,53.85
2018-02-22T07:16:17.032Z,53.53
2018-02-22T07:18:48.036Z,52.94
2018-02-22T07:21:19.077Z,52.19
2018-02-22T07:23:50.080Z,52.00
2018-02-22T07:26:21.118Z,51.30
2018-02-22T07:28:52.140Z,51.14
2018-02-22T07:31:23.109Z,50.97
2018-02-22T07:33:54.191Z,51.07
2018-02-22T07:36:25.212Z,50.46
2018-02-22T07:38:56.420Z,50.36
2018-02-22T07:41:27.485Z,50.69
2018-02-22T07:43:58.485Z,50.31
2018-02-22T07:46:29.496Z,49.26
2018-02-22T07:49:00.462Z,48.44
2018-02-22T07:51:31.473Z,48.48
2018-02-22T07:54:02.456Z,48.41
2018-02-22T07:56:33.512Z,47.91
2018-02-22T07:59:04.498Z,47.45
2018-02-22T08:01:35.557Z,47.97
2018-02-22T08:04:06.540Z,48.19
2018-02-22T08:06:37.547Z,48.35
2018-02-22T08:09:08.520Z,47.99
2018-02-22T08:11:39.524Z,48.51
2018-02-22T08:14:10.522Z,47.61
2018-02-22T08:16:41.596Z,47.33
2018-02-22T08:19:12.572Z,47.02
2018-02-22T08:21:43.667Z,46.02
2018-02-22T08:24:14.651Z,45.23
2018-02-22T08:26:45.666Z,44.96
2018-02-22T08:29:16.684Z,44.19
2018-02-22T08:31:47.727Z,44.08
2018-02-22T08:34:18.701Z,42.79
2018-02-22T08:36:49.774Z,42.23
2018-02-22T08:39:20.736Z,41.38
2018-02-22T08:41:51.754Z,41.50
2018-02-22T08:44:22.803Z,40.41
2018-02-22T08:46:53.870Z,39.02
2018-02-22T08:49:24.896Z,38.16
2018-02-22T08:51:55.902Z,35.55
2018-02-22T08:54:26.923Z,33.22
2018-02-22T08:56:57.951Z,31.46
2018-02-22T08:59:29.002Z,31.31
2018-02-22T09:01:59.961Z,31.16
2018-02-22T09:04:31.001Z,32.65
2018-02-22T09:07:02.005Z,31.23
2018-02-22T09:09:33.008Z,29.67
2018-02-22T09:12:04.007Z,27.88
2018-02-22T09:14:35.035Z,29.32
2018-02-22T09:17:06.040Z,32.11
2018-02-22T09:19:37.127Z,33.71
2018-02-22T09:22:08.129Z,35.41
2018-02-22T09:24:39.179Z,37.27
2018-02-22T09:27:10.127Z,38.07
2018-02-22T09:29:41.130Z,38.82
2018-02-22T09:32:12.197Z,39.66
2018-02-22T09:34:43.193Z,39.50
2018-02-22T09:37:14.197Z,39.59
2018-02-22T09:39:45.142Z,39.07
2018-02-22T09:42:16.195Z,39.57
2018-02-22T09:44:47.201Z,39.94
2018-02-22T09:47:18.197Z,39.59
2018-02-22T09:49:49.191Z,39.65
2018-02-22T09:52:20.230Z,39.29
2018-02-22T09:54:51.457Z,38.69
2018-02-22T09:57:22.588Z,38.04
2018-02-22T09:59:53.554Z,37.41
2018-02-22T10:02:24.605Z,36.87
2018-02-22T10:04:55.614Z,34.98
2018-02-22T10:07:26.645Z,33.71
2018-02-22T10:09:57.637Z,32.02
2018-02-22T10:12:28.685Z,31.73
2018-02-22T10:14:59.672Z,31.49
2018-02-22T10:17:30.688Z,31.77
2018-02-22T10:20:01.743Z,30.65
2018-02-22T10:22:32.736Z,32.20
2018-02-22T10:25:03.771Z,31.54
2018-02-22T10:27:34.750Z,32.02
2018-02-22T10:30:05.780Z,32.42
2018-02-22T10:32:36.721Z,31.58
2018-02-22T10:35:07.762Z,30.62
2018-02-22T10:37:38.756Z,29.38
2018-02-22T10:40:09.790Z,29.58
2018-02-22T10:42:40.856Z,30.25
2018-02-22T10:45:11.845Z,30.33
2018-02-22T10:47:42.885Z,29.21
2018-02-22T10:50:14.647Z,30.00
2018-02-22T10:52:45.626Z,32.12
2018-02-22T10:55:16.647Z,31.80
2018-02-22T10:57:47.644Z,32.38
2018-02-22T11:00:20.703Z,32.98
2018-02-22T11:02:51.720Z,34.41
2018-02-22T11:05:22.794Z,34.44
2018-02-22T11:07:53.785Z,33.16
2018-02-22T11:10:24.787Z,33.84
2018-02-22T11:12:55.739Z,32.51
2018-02-22T11:15:26.735Z,32.76
2018-02-22T11:17:57.757Z,32.36
2018-02-22T11:20:28.807Z,32.78
2018-02-22T11:22:59.782Z,30.54
2018-02-22T11:25:30.869Z,29.43
2018-02-22T11:28:01.913Z,29.56
2018-02-22T11:30:32.950Z,30.46
2018-02-22T11:33:04.000Z,31.06
2018-02-22T11:35:34.985Z,31.51
2018-02-22T11:38:06.053Z,31.71
2018-02-22T11:40:37.041Z,31.74
2018-02-22T11:43:08.072Z,31.57
2018-02-22T11:45:39.245Z,31.33
2018-02-22T11:48:10.273Z,31.96
2018-02-22T11:50:41.256Z,31.99
2018-02-22T11:53:12.297Z,32.75
2018-02-22T11:55:43.325Z,33.94
2018-02-22T11:58:14.401Z,33.41
2018-02-22T12:00:45.387Z,34.48
2018-02-22T12:03:16.405Z,33.98
2018-02-22T12:05:47.396Z,34.66
2018-02-22T12:08:18.413Z,34.65
2018-02-22T12:10:49.396Z,35.20
2018-02-22T12:13:20.445Z,35.00
2018-02-22T12:15:51.467Z,34.44
2018-02-22T12:18:22.593Z,34.93
2018-02-22T12:20:53.586Z,34.57
2018-02-22T12:23:24.634Z,35.41
2018-02-22T12:25:55.610Z,35.56
2018-02-22T12:28:26.662Z,36.26
2018-02-22T12:30:57.661Z,35.72
2018-02-22T12:33:28.714Z,35.97
2018-02-22T12:35:59.670Z,35.82
2018-02-22T12:38:30.718Z,34.92
2018-02-22T12:41:01.725Z,34.58
2018-02-22T12:43:32.748Z,34.65
2018-02-22T12:46:03.775Z,33.05
2018-02-22T12:48:34.784Z,33.47
2018-02-22T12:51:05.790Z,34.46
2018-02-22T12:53:43.664Z,34.41
2018-02-22T12:56:14.684Z,33.83
2018-02-22T12:58:45.683Z,33.47
2018-02-22T13:01:16.709Z,33.03
2018-02-22T13:03:47.762Z,32.66
2018-02-22T13:06:18.757Z,32.41
2018-02-22T13:08:49.819Z,31.21
2018-02-22T13:11:20.771Z,32.19
2018-02-22T13:13:51.803Z,33.01
2018-02-22T13:16:22.815Z,33.91
2018-02-22T13:18:53.904Z,34.56
2018-02-22T13:21:24.899Z,35.40
2018-02-22T13:23:55.973Z,35.01
2018-02-22T13:26:26.939Z,33.85
2018-02-22T13:28:57.935Z,33.67
2018-02-22T13:31:28.928Z,33.55
2018-02-22T13:34:12.385Z,33.71
2018-02-22T13:36:43.390Z,33.88
2018-02-22T13:39:14.520Z,32.92
2018-02-22T13:41:45.494Z,34.24
2018-02-22T13:44:28.753Z,34.89
2018-02-22T13:46:59.748Z,34.60
2018-02-22T13:49:43.129Z,33.90
2018-02-22T13:52:14.133Z,35.58
2018-02-22T13:54:45.189Z,35.74
2018-02-22T13:57:17.081Z,35.39
2018-02-22T13:59:48.176Z,35.19
2018-02-22T14:02:25.074Z,36.12
2018-02-22T14:04:56.130Z,36.48
2018-02-22T14:07:27.100Z,35.88
2018-02-22T14:09:58.116Z,35.99
2018-02-22T14:12:29.080Z,36.54
2018-02-22T14:15:00.123Z,36.25
2018-02-22T14:17:31.175Z,36.69
2018-02-22T14:20:02.215Z,37.61
2018-02-22T14:22:33.235Z,37.12
2018-02-22T14:25:04.195Z,36.77
2018-02-22T14:27:35.226Z,37.61
2018-02-22T14:30:06.256Z,38.69
2018-02-22T14:32:37.243Z,39.12
2018-02-22T14:35:08.264Z,39.03
2018-02-22T14:37:39.329Z,39.57
2018-02-22T14:40:10.373Z,39.45
2018-02-22T14:42:41.346Z,39.28
2018-02-22T14:45:12.369Z,39.45
2018-02-22T14:47:43.344Z,39.80
2018-02-22T14:50:14.391Z,40.10
2018-02-22T14:52:45.373Z,39.97
2018-02-22T14:55:16.461Z,40.04
2018-02-22T14:57:47.547Z,39.90
2018-02-22T15:00:18.525Z,39.88
2018-02-22T15:02:49.537Z,40.20
2018-02-22T15:05:20.491Z,40.26
2018-02-22T15:07:51.699Z,40.38
2018-02-22T15:10:22.723Z,39.89
2018-02-22T15:12:53.724Z,39.54
2018-02-22T15:15:24.739Z,39.83
2018-02-22T15:17:55.730Z,40.48
2018-02-22T15:20:26.731Z,40.21
2018-02-22T15:22:57.809Z,39.72
2018-02-22T15:25:28.772Z,39.57
2018-02-22T15:27:59.775Z,40.18
2018-02-22T15:30:30.786Z,40.67
2018-02-22T15:33:01.830Z,40.55
2018-02-22T15:35:32.795Z,40.88
2018-02-22T15:38:03.867Z,41.42
2018-02-22T15:40:34.840Z,41.54
2018-02-22T15:43:05.890Z,41.83
2018-02-22T15:45:36.851Z,42.01
2018-02-22T15:48:07.891Z,42.04
2018-02-22T15:50:38.847Z,42.27
2018-02-22T15:53:09.965Z,42.29
2018-02-22T15:55:40.963Z,42.29
2018-02-22T15:58:12.005Z,42.61
2018-02-22T16:00:42.990Z,42.66
2018-02-22T16:03:14.000Z,42.52
2018-02-22T16:05:45.073Z,42.83
2018-02-22T16:08:16.064Z,42.81
2018-02-22T16:10:47.118Z,43.50
2018-02-22T16:13:18.365Z,43.26
2018-02-22T16:15:49.347Z,43.43
2018-02-22T16:18:20.419Z,43.87
2018-02-22T16:20:51.380Z,43.47
2018-02-22T16:23:22.399Z,43.69
2018-02-22T16:25:53.419Z,43.49
2018-02-22T16:28:24.441Z,43.68
2018-02-22T16:30:55.424Z,44.13
2018-02-22T16:33:26.441Z,44.34
2018-02-22T16:35:57.455Z,44.26
2018-02-22T16:38:28.489Z,44.14
2018-02-22T16:40:59.585Z,44.03
2018-02-22T16:43:30.555Z,44.04
2018-02-22T16:46:01.573Z,44.58
2018-02-22T16:48:32.564Z,44.64
2018-02-22T16:51:03.560Z,44.55
2018-02-22T16:53:34.537Z,44.83
2018-02-22T16:56:05.600Z,44.59
2018-02-22T16:58:36.609Z,44.54
2018-02-22T17:01:07.624Z,44.59
2018-02-22T17:03:38.608Z,44.28
2018-02-22T17:06:09.654Z,44.72
2018-02-22T17:08:40.642Z,44.50
2018-02-22T17:11:11.699Z,44.30
2018-02-22T17:13:42.655Z,44.60
2018-02-22T17:16:13.665Z,44.76
2018-02-22T17:18:44.624Z,44.82
2018-02-22T17:21:15.642Z,44.71
2018-02-22T17:23:46.626Z,45.41
2018-02-22T17:26:23.693Z,45.73
2018-02-22T17:29:00.885Z,45.56
2018-02-22T17:31:38.005Z,45.57
2018-02-22T17:34:09.020Z,45.68
2018-02-22T17:36:51.168Z,46.21
2018-02-22T17:42:27.119Z,46.68
2018-02-22T17:44:58.105Z,46.75
2018-02-22T17:47:29.167Z,46.44
2018-02-22T17:50:00.238Z,45.94
2018-02-22T17:52:31.326Z,46.30
2018-02-22T17:55:02.336Z,46.35
2018-02-22T17:57:33.385Z,45.95
2018-02-22T18:00:04.448Z,46.05
2018-02-22T18:02:36.507Z,46.04
2018-02-22T18:05:07.641Z,46.11
2018-02-22T18:07:38.655Z,46.39
2018-02-22T18:10:09.640Z,46.48
2018-02-22T18:12:40.711Z,46.69
2018-02-22T18:15:11.692Z,46.44
2018-02-22T18:17:42.744Z,46.37
2018-02-22T18:20:13.750Z,46.03
2018-02-22T18:22:44.827Z,46.23
2018-02-22T18:25:15.866Z,46.49
2018-02-22T18:27:46.909Z,46.64
2018-02-22T18:30:17.946Z,46.75
2018-02-22T18:32:48.958Z,46.92
2018-02-22T18:35:20.069Z,46.63
2018-02-22T18:37:59.995Z,46.70
2018-02-22T18:40:37.268Z,46.92
2018-02-22T18:43:14.340Z,46.88
2018-02-22T18:45:45.412Z,46.80
2018-02-22T18:48:16.396Z,46.16
2018-02-22T18:50:47.433Z,46.11
2018-02-22T18:53:18.442Z,45.97
2018-02-22T18:55:49.476Z,45.85
2018-02-22T18:58:20.476Z,45.86
2018-02-22T19:00:51.528Z,45.97
2018-02-22T19:03:22.491Z,45.98
2018-02-22T19:05:53.586Z,46.20
2018-02-22T19:08:24.592Z,45.80
2018-02-22T19:10:55.600Z,45.62
2018-02-22T19:13:26.592Z,45.65
2018-02-22T19:15:57.640Z,45.97
2018-02-22T19:18:35.633Z,46.24
2018-02-22T19:21:06.683Z,45.81
2018-02-22T19:23:37.734Z,46.15
2018-02-22T19:26:08.668Z,46.47
2018-02-22T19:28:39.702Z,46.29
2018-02-22T19:31:10.658Z,46.65
2018-02-22T19:33:41.648Z,47.00
2018-02-22T19:36:12.666Z,47.11
2018-02-22T19:38:43.685Z,46.93
2018-02-22T19:41:14.817Z,47.26
2018-02-22T19:43:45.846Z,47.43
2018-02-22T19:46:16.792Z,47.84
2018-02-22T19:48:47.811Z,48.26
2018-02-22T19:51:18.802Z,48.43
2018-02-22T19:53:49.851Z,48.51
2018-02-22T19:56:20.852Z,48.52
2018-02-22T19:58:51.906Z,48.29
2018-02-22T20:01:22.915Z,48.41
2018-02-22T20:03:53.987Z,48.42
2018-02-22T20:06:24.998Z,49.11
2018-02-22T20:08:56.001Z,48.89
2018-02-22T20:11:26.975Z,49.20
2018-02-22T20:13:57.983Z,49.77
2018-02-22T20:16:29.026Z,49.95
2018-02-22T20:19:00.024Z,50.24
2018-02-22T20:21:31.010Z,50.16
2018-02-22T20:24:02.159Z,50.44
2018-02-22T20:26:33.143Z,51.18
2018-02-22T20:29:04.165Z,51.33
2018-02-22T20:31:35.180Z,51.20
2018-02-22T20:34:06.218Z,51.30
2018-02-22T20:36:37.222Z,51.09
2018-02-22T20:39:08.347Z,51.13
2018-02-22T20:41:39.369Z,51.88
2018-02-22T20:44:10.417Z,52.11
2018-02-22T20:46:41.479Z,52.38
2018-02-22T20:49:12.501Z,52.36
2018-02-22T20:51:57.591Z,52.31
2018-02-22T20:54:28.684Z,52.69
2018-02-22T20:56:59.648Z,53.26
2018-02-22T20:59:30.695Z,53.69
2018-02-22T21:02:01.718Z,54.07
2018-02-22T21:04:32.811Z,54.16
2018-02-22T21:07:03.839Z,54.42
2018-02-22T21:09:34.873Z,54.49
2018-02-22T21:12:05.938Z,55.07
2018-02-22T21:14:36.910Z,55.18
2018-02-22T21:17:07.952Z,55.09
2018-02-22T21:19:38.920Z,55.23
2018-02-22T21:22:09.962Z,55.27
2018-02-22T21:24:40.923Z,55.39
2018-02-22T21:27:11.908Z,55.20
2018-02-22T21:29:42.898Z,55.55
2018-02-22T21:32:13.930Z,55.69
2018-02-22T21:34:44.945Z,55.65
2018-02-22T21:37:15.950Z,55.83
2018-02-22T21:39:46.884Z,55.46
2018-02-22T21:42:17.879Z,55.22
2018-02-22T21:44:48.927Z,55.28
2018-02-22T21:47:19.924Z,55.13
2018-02-22T21:49:50.885Z,55.38
2018-02-22T21:52:21.883Z,55.17
2018-02-22T21:54:52.915Z,55.43
2018-02-22T21:57:23.963Z,55.64
2018-02-22T21:59:54.963Z,55.48
2018-02-22T22:02:25.989Z,55.54
2018-02-22T22:04:56.993Z,55.59
2018-02-22T22:07:28.044Z,55.42
2018-02-22T22:09:59.053Z,55.04
2018-02-22T22:12:30.075Z,54.71
2018-02-22T22:15:01.106Z,54.85
2018-02-22T22:17:32.132Z,54.83
2018-02-22T22:20:03.162Z,54.49
2018-02-22T22:22:34.207Z,54.38
2018-02-22T22:25:05.163Z,54.10
2018-02-22T22:27:36.233Z,54.46
2018-02-22T22:30:07.255Z,54.39
2018-02-22T22:32:38.292Z,54.15
2018-02-22T22:35:09.267Z,54.32
2018-02-22T22:37:40.334Z,54.64
2018-02-22T22:40:11.322Z,54.77
2018-02-22T22:42:42.331Z,55.08
2018-02-22T22:45:13.333Z,55.41
2018-02-22T22:47:44.394Z,55.34
2018-02-22T22:50:15.359Z,55.59
2018-02-22T22:52:46.479Z,55.77
2018-02-22T22:55:17.481Z,56.49
2018-02-22T22:57:48.499Z,56.92
2018-02-22T23:00:21.424Z,56.86
2018-02-22T23:02:52.498Z,56.54
2018-02-22T23:05:23.469Z,56.91
2018-02-22T23:07:54.519Z,56.70
2018-02-22T23:10:25.851Z,56.95
2018-02-22T23:12:56.864Z,56.95
2018-02-22T23:15:27.881Z,56.54
2018-02-22T23:17:58.911Z,56.53
2018-02-22T23:20:29.926Z,56.28
2018-02-22T23:23:00.989Z,56.46
2018-02-22T23:25:31.961Z,56.46
2018-02-22T23:28:03.018Z,56.33
2018-02-22T23:30:34.016Z,56.09
2018-02-22T23:33:05.089Z,55.83
2018-02-22T23:35:36.134Z,54.92
2018-02-22T23:38:07.164Z,54.22
2018-02-22T23:40:52.117Z,53.46
2018-02-22T23:43:23.132Z,52.21
2018-02-22T23:45:54.214Z,51.04
2018-02-22T23:48:25.207Z,50.49
2018-02-22T23:50:56.233Z,50.26
2018-02-22T23:53:27.214Z,49.62
2018-02-22T23:55:58.228Z,48.95
2018-02-22T23:58:29.207Z,48.93
